M/T Arcadia — SY7849 — position and weather

sailwx.info

Track history (hours):
 
Tides and Currents Weather Stations Pressure Air Temp Water Temp Dewpoint Dewpoint Depression Visibility Wind Speed Wind Dir Waves Ship Positions

M/T Arcadia

Last reported at 2015-May-26 18:04 UTC. Time now 2015-May-27 05:37 UTC.
Position N 35°59' E 023°56'.

Length 76 m; draft 4.7 m.

Type: Ship. MMSI: 240560000.

Date/timePositionNaut miles runAvg speedWind from/ knotsBaromVisibWave heightAir tempDewpointWater temp
2015-May-26 18:04N 35°59' E 023°56'5 8.3
2015-May-26 17:31N 36°04' E 023°55'8 8.2
2015-May-26 16:33N 36°12' E 023°54'10 8.4
2015-May-26 15:24N 36°21' E 023°52'8 8.4
2015-May-26 14:25N 36°29' E 023°50'8 8.2
2015-May-26 13:30N 36°36' E 023°48'47 7.8
2015-May-26 07:31N 37°22' E 023°37'7 7.5
2015-May-26 06:32N 37°29' E 023°34'8 8.2
2015-May-26 05:33N 37°36' E 023°28'8 7.8
2015-May-26 04:33N 37°40' E 023°19'8 7.7
2015-May-26 03:33N 37°46' E 023°14'9 8.6
2015-May-26 02:32N 37°53' E 023°07'3 0.1
2015-May-25 05:29N 37°55' E 023°05'0 0.0
2015-May-24 20:21N 37°55' E 023°05'0 0.0
2015-May-24 17:23N 37°55' E 023°05'0 0.0
2015-May-24 16:32N 37°55' E 023°05'0 0.0
2015-May-24 15:23N 37°55' E 023°05'3 0.6
2015-May-24 10:22N 37°54' E 023°08'6 7.3
2015-May-24 09:33N 37°49' E 023°12'8 8.0
2015-May-24 08:33N 37°42' E 023°17'8 7.7
2015-May-24 07:33N 37°38' E 023°26'8 8.1
2015-May-24 06:33N 37°32' E 023°32'9 9.2
2015-May-24 05:33N 37°23' E 023°36'9 8.8
2015-May-24 04:32N 37°15' E 023°32'8 8.4
2015-May-24 03:33N 37°08' E 023°26'75 6.9
2015-May-23 16:33N 35°53' E 023°37'7 7.0
2015-May-23 15:33N 35°48' E 023°43'7 6.9
2015-May-23 14:33N 35°43' E 023°49'7 6.8
2015-May-23 13:33N 35°38' E 023°55'8 8.2
2015-May-23 12:33N 35°33' E 024°03'0 0.2
2015-May-23 11:26N 35°33' E 024°03'0 0.0
2015-May-23 10:32N 35°33' E 024°03'1 0.0
2015-May-22 00:29N 35°34' E 024°03'11 8.3
2015-May-21 23:07N 35°45' E 024°00'7 8.6
2015-May-21 22:19N 35°52' E 023°59'15 8.2
2015-May-21 20:32N 36°06' E 023°55'10 8.4
2015-May-21 19:19N 36°16' E 023°53'7 8.6
2015-May-21 18:33N 36°22' E 023°51'17 8.5
2015-May-21 16:33N 36°39' E 023°47'49 8.2
2015-May-21 10:33N 37°27' E 023°34'8 7.7
2015-May-21 09:34N 37°34' E 023°30'8 8.1
2015-May-21 08:33N 37°39' E 023°22'7 7.5
2015-May-21 07:34N 37°45' E 023°15'9 8.8
2015-May-21 06:33N 37°52' E 023°09'1 0.0
2015-May-20 09:27N 37°53' E 023°09'7 8.0
2015-May-20 08:33N 37°47' E 023°13'8 8.3
2015-May-20 07:33N 37°40' E 023°19'9 8.8
2015-May-20 06:33N 37°37' E 023°30'9 8.8
2015-May-20 05:33N 37°30' E 023°35'118 8.4
2015-May-19 15:29N 35°34' E 024°03'1 0.0
2015-May-19 02:06N 35°34' E 024°04'0 0.1
2015-May-19 01:30N 35°34' E 024°04'3 3.2
2015-May-19 00:33N 35°37' E 024°03'9 8.5
2015-May-18 23:31N 35°46' E 024°01'18 8.4
2015-May-18 21:24N 36°03' E 023°56'7 8.3
2015-May-18 20:31N 36°10' E 023°54'18 8.2
2015-May-18 18:21N 36°27' E 023°49'9 8.3
2015-May-18 17:15N 36°36' E 023°47'6 8.1
2015-May-18 16:33N 36°42' E 023°45'10 8.1
2015-May-18 15:17N 36°52' E 023°44'6 8.2
2015-May-18 14:33N 36°58' E 023°43'8 7.6
2015-May-18 13:33N 37°05' E 023°41'8 7.8
2015-May-18 12:33N 37°13' E 023°39'8 8.2
2015-May-18 11:33N 37°21' E 023°37'8 8.1
2015-May-18 10:33N 37°29' E 023°35'9 8.5
2015-May-18 09:29N 37°36' E 023°27'8 8.4
2015-May-18 08:33N 37°40' E 023°19'8 8.3
2015-May-18 07:33N 37°47' E 023°13'9 8.5
2015-May-18 06:33N 37°54' E 023°07'2 0.2
2015-May-17 21:25N 37°55' E 023°05'0 0.0
2015-May-17 07:19N 37°55' E 023°06'1 1.6
2015-May-17 06:33N 37°54' E 023°07'9 8.8
2015-May-17 05:33N 37°47' E 023°13'9 8.9
2015-May-17 04:33N 37°40' E 023°20'9 9.1
2015-May-17 03:33N 37°36' E 023°31'9 9.0
2015-May-17 02:33N 37°28' E 023°36'9 9.2
2015-May-17 01:33N 37°19' E 023°38'9 9.3
2015-May-17 00:33N 37°10' E 023°39'19 9.4
2015-May-16 22:30N 36°51' E 023°43'9 9.4
2015-May-16 21:33N 36°42' E 023°46'9 9.4
2015-May-16 20:33N 36°33' E 023°48'  
Track history (hours):
 
Tides and Currents Weather Stations Pressure Air Temp Water Temp Dewpoint Dewpoint Depression Visibility Wind Speed Wind Dir Waves Ship Positions

M/T Arcadia

Last reported at 2015-May-26 18:04 UTC. Time now 2015-May-27 05:37 UTC.
Position N 35°59' E 023°56'.

Length 76 m; draft 4.7 m.

Type: Ship. MMSI: 240560000.

Date/timePositionNaut miles runAvg speedWind from/ knotsBaromVisibWave heightAir tempDewpointWater temp
2015-May-26 18:04N 35°59' E 023°56'5 8.3
2015-May-26 17:31N 36°04' E 023°55'8 8.2
2015-May-26 16:33N 36°12' E 023°54'10 8.4
2015-May-26 15:24N 36°21' E 023°52'8 8.4
2015-May-26 14:25N 36°29' E 023°50'8 8.2
2015-May-26 13:30N 36°36' E 023°48'47 7.8
2015-May-26 07:31N 37°22' E 023°37'7 7.5
2015-May-26 06:32N 37°29' E 023°34'8 8.2
2015-May-26 05:33N 37°36' E 023°28'8 7.8
2015-May-26 04:33N 37°40' E 023°19'8 7.7
2015-May-26 03:33N 37°46' E 023°14'9 8.6
2015-May-26 02:32N 37°53' E 023°07'3 0.1
2015-May-25 05:29N 37°55' E 023°05'0 0.0
2015-May-24 20:21N 37°55' E 023°05'0 0.0
2015-May-24 17:23N 37°55' E 023°05'0 0.0
2015-May-24 16:32N 37°55' E 023°05'0 0.0
2015-May-24 15:23N 37°55' E 023°05'3 0.6
2015-May-24 10:22N 37°54' E 023°08'6 7.3
2015-May-24 09:33N 37°49' E 023°12'8 8.0
2015-May-24 08:33N 37°42' E 023°17'8 7.7
2015-May-24 07:33N 37°38' E 023°26'8 8.1
2015-May-24 06:33N 37°32' E 023°32'9 9.2
2015-May-24 05:33N 37°23' E 023°36'9 8.8
2015-May-24 04:32N 37°15' E 023°32'8 8.4
2015-May-24 03:33N 37°08' E 023°26'75 6.9
2015-May-23 16:33N 35°53' E 023°37'7 7.0
2015-May-23 15:33N 35°48' E 023°43'7 6.9
2015-May-23 14:33N 35°43' E 023°49'7 6.8
2015-May-23 13:33N 35°38' E 023°55'8 8.2
2015-May-23 12:33N 35°33' E 024°03'0 0.2
2015-May-23 11:26N 35°33' E 024°03'0 0.0
2015-May-23 10:32N 35°33' E 024°03'1 0.0
2015-May-22 00:29N 35°34' E 024°03'11 8.3
2015-May-21 23:07N 35°45' E 024°00'7 8.6
2015-May-21 22:19N 35°52' E 023°59'15 8.2
2015-May-21 20:32N 36°06' E 023°55'10 8.4
2015-May-21 19:19N 36°16' E 023°53'7 8.6
2015-May-21 18:33N 36°22' E 023°51'17 8.5
2015-May-21 16:33N 36°39' E 023°47'49 8.2
2015-May-21 10:33N 37°27' E 023°34'8 7.7
2015-May-21 09:34N 37°34' E 023°30'8 8.1
2015-May-21 08:33N 37°39' E 023°22'7 7.5
2015-May-21 07:34N 37°45' E 023°15'9 8.8
2015-May-21 06:33N 37°52' E 023°09'1 0.0
2015-May-20 09:27N 37°53' E 023°09'7 8.0
2015-May-20 08:33N 37°47' E 023°13'8 8.3
2015-May-20 07:33N 37°40' E 023°19'9 8.8
2015-May-20 06:33N 37°37' E 023°30'9 8.8
2015-May-20 05:33N 37°30' E 023°35'118 8.4
2015-May-19 15:29N 35°34' E 024°03'1 0.0
2015-May-19 02:06N 35°34' E 024°04'0 0.1
2015-May-19 01:30N 35°34' E 024°04'3 3.2
2015-May-19 00:33N 35°37' E 024°03'9 8.5
2015-May-18 23:31N 35°46' E 024°01'18 8.4
2015-May-18 21:24N 36°03' E 023°56'7 8.3
2015-May-18 20:31N 36°10' E 023°54'18 8.2
2015-May-18 18:21N 36°27' E 023°49'9 8.3
2015-May-18 17:15N 36°36' E 023°47'6 8.1
2015-May-18 16:33N 36°42' E 023°45'10 8.1
2015-May-18 15:17N 36°52' E 023°44'6 8.2
2015-May-18 14:33N 36°58' E 023°43'8 7.6
2015-May-18 13:33N 37°05' E 023°41'8 7.8
2015-May-18 12:33N 37°13' E 023°39'8 8.2
2015-May-18 11:33N 37°21' E 023°37'8 8.1
2015-May-18 10:33N 37°29' E 023°35'9 8.5
2015-May-18 09:29N 37°36' E 023°27'8 8.4
2015-May-18 08:33N 37°40' E 023°19'8 8.3
2015-May-18 07:33N 37°47' E 023°13'9 8.5
2015-May-18 06:33N 37°54' E 023°07'2 0.2
2015-May-17 21:25N 37°55' E 023°05'0 0.0
2015-May-17 07:19N 37°55' E 023°06'1 1.6
2015-May-17 06:33N 37°54' E 023°07'9 8.8
2015-May-17 05:33N 37°47' E 023°13'9 8.9
2015-May-17 04:33N 37°40' E 023°20'9 9.1
2015-May-17 03:33N 37°36' E 023°31'9 9.0
2015-May-17 02:33N 37°28' E 023°36'9 9.2
2015-May-17 01:33N 37°19' E 023°38'9 9.3
2015-May-17 00:33N 37°10' E 023°39'19 9.4
2015-May-16 22:30N 36°51' E 023°43'9 9.4
2015-May-16 21:33N 36°42' E 023°46'9 9.4
2015-May-16 20:33N 36°33' E 023°48'  

Dump ship's entire track history